sensor_id;sensor_type;location;lat;lon;timestamp;temperature;humidity
58517;DHT22;44308;50.810;0.284;2023-07-13T00:01:52;17.30;99.90
58517;DHT22;44308;50.810;0.284;2023-07-13T00:04:25;17.30;99.90
58517;DHT22;44308;50.810;0.284;2023-07-13T00:06:54;17.30;99.90
58517;DHT22;44308;50.810;0.284;2023-07-13T00:09:26;17.30;99.90
58517;DHT22;44308;50.810;0.284;2023-07-13T00:11:58;17.30;99.90
58517;DHT22;44308;50.810;0.284;2023-07-13T00:14:29;17.20;99.90
58517;DHT22;44308;50.810;0.284;2023-07-13T00:16:58;17.20;99.90
58517;DHT22;44308;50.810;0.284;2023-07-13T00:19:31;17.20;99.90
58517;DHT22;44308;50.810;0.284;2023-07-13T00:21:59;17.20;99.90
58517;DHT22;44308;50.810;0.284;2023-07-13T00:24:48;17.20;99.90
58517;DHT22;44308;50.810;0.284;2023-07-13T00:27:19;17.20;99.90
58517;DHT22;44308;50.810;0.284;2023-07-13T00:29:48;17.10;99.90
58517;DHT22;44308;50.810;0.284;2023-07-13T00:32:17;17.20;99.90
58517;DHT22;44308;50.810;0.284;2023-07-13T00:34:44;17.20;99.90
58517;DHT22;44308;50.810;0.284;2023-07-13T00:37:10;17.10;99.90
58517;DHT22;44308;50.810;0.284;2023-07-13T00:39:39;17.10;99.90
58517;DHT22;44308;50.810;0.284;2023-07-13T00:42:11;17.20;99.90
58517;DHT22;44308;50.810;0.284;2023-07-13T00:44:38;17.10;99.90
58517;DHT22;44308;50.810;0.284;2023-07-13T00:47:09;17.10;99.90
58517;DHT22;44308;50.810;0.284;2023-07-13T00:49:36;17.00;99.90
58517;DHT22;44308;50.810;0.284;2023-07-13T00:52:07;17.00;99.90
58517;DHT22;44308;50.810;0.284;2023-07-13T00:54:40;17.00;99.90
58517;DHT22;44308;50.810;0.284;2023-07-13T00:57:16;17.00;99.90
58517;DHT22;44308;50.810;0.284;2023-07-13T00:59:45;17.00;99.90
58517;DHT22;44308;50.810;0.284;2023-07-13T01:02:12;17.00;99.90
58517;DHT22;44308;50.810;0.284;2023-07-13T01:04:38;16.90;99.90
58517;DHT22;44308;50.810;0.284;2023-07-13T01:07:05;16.90;99.90
58517;DHT22;44308;50.810;0.284;2023-07-13T01:09:34;16.90;99.90
58517;DHT22;44308;50.810;0.284;2023-07-13T01:12:04;16.90;99.90
58517;DHT22;44308;50.810;0.284;2023-07-13T01:14:33;16.90;99.90
58517;DHT22;44308;50.810;0.284;2023-07-13T01:17:08;16.90;99.90
58517;DHT22;44308;50.810;0.284;2023-07-13T01:19:41;16.80;99.90
58517;DHT22;44308;50.810;0.284;2023-07-13T01:22:16;16.80;99.90
58517;DHT22;44308;50.810;0.284;2023-07-13T01:24:45;16.70;99.90
58517;DHT22;44308;50.810;0.284;2023-07-13T01:27:14;16.60;99.90
58517;DHT22;44308;50.810;0.284;2023-07-13T01:29:44;16.70;99.90
58517;DHT22;44308;50.810;0.284;2023-07-13T01:32:23;16.60;99.90
58517;DHT22;44308;50.810;0.284;2023-07-13T01:34:51;16.60;99.90
58517;DHT22;44308;50.810;0.284;2023-07-13T01:37:20;16.60;99.90
58517;DHT22;44308;50.810;0.284;2023-07-13T01:39:47;16.60;99.90
58517;DHT22;44308;50.810;0.284;2023-07-13T01:42:14;16.60;99.90
58517;DHT22;44308;50.810;0.284;2023-07-13T01:44:40;16.60;99.90
58517;DHT22;44308;50.810;0.284;2023-07-13T01:47:06;16.60;99.90
58517;DHT22;44308;50.810;0.284;2023-07-13T01:49:32;16.50;99.90
58517;DHT22;44308;50.810;0.284;2023-07-13T01:51:58;16.60;99.90
58517;DHT22;44308;50.810;0.284;2023-07-13T01:54:24;16.50;99.90
58517;DHT22;44308;50.810;0.284;2023-07-13T01:56:52;16.50;99.90
58517;DHT22;44308;50.810;0.284;2023-07-13T01:59:20;16.40;99.90
58517;DHT22;44308;50.810;0.284;2023-07-13T02:01:48;16.40;99.90
58517;DHT22;44308;50.810;0.284;2023-07-13T02:04:14;16.40;99.90
58517;DHT22;44308;50.810;0.284;2023-07-13T02:06:45;16.30;99.90
58517;DHT22;44308;50.810;0.284;2023-07-13T02:09:11;16.20;99.90
58517;DHT22;44308;50.810;0.284;2023-07-13T02:11:37;16.20;99.90
58517;DHT22;44308;50.810;0.284;2023-07-13T02:14:05;16.10;99.90
58517;DHT22;44308;50.810;0.284;2023-07-13T02:16:39;16.10;99.90
58517;DHT22;44308;50.810;0.284;2023-07-13T02:19:05;16.20;99.90
58517;DHT22;44308;50.810;0.284;2023-07-13T02:21:31;16.20;99.90
58517;DHT22;44308;50.810;0.284;2023-07-13T02:24:06;16.20;99.90
58517;DHT22;44308;50.810;0.284;2023-07-13T02:26:32;16.20;99.90
58517;DHT22;44308;50.810;0.284;2023-07-13T02:29:03;16.10;99.90
58517;DHT22;44308;50.810;0.284;2023-07-13T02:31:28;16.10;99.90
58517;DHT22;44308;50.810;0.284;2023-07-13T02:33:54;16.10;99.90
58517;DHT22;44308;50.810;0.284;2023-07-13T02:36:23;16.10;99.90
58517;DHT22;44308;50.810;0.284;2023-07-13T02:38:55;16.10;99.90
58517;DHT22;44308;50.810;0.284;2023-07-13T02:41:25;16.00;99.90
58517;DHT22;44308;50.810;0.284;2023-07-13T02:43:51;16.00;99.90
58517;DHT22;44308;50.810;0.284;2023-07-13T02:46:17;16.00;99.90
58517;DHT22;44308;50.810;0.284;2023-07-13T02:48:45;16.00;99.90
58517;DHT22;44308;50.810;0.284;2023-07-13T02:51:11;15.90;99.90
58517;DHT22;44308;50.810;0.284;2023-07-13T02:53:40;15.90;99.90
58517;DHT22;44308;50.810;0.284;2023-07-13T02:56:06;15.80;99.90
58517;DHT22;44308;50.810;0.284;2023-07-13T02:58:33;15.80;99.90
58517;DHT22;44308;50.810;0.284;2023-07-13T03:01:09;15.80;99.90
58517;DHT22;44308;50.810;0.284;2023-07-13T03:03:36;15.80;99.90
58517;DHT22;44308;50.810;0.284;2023-07-13T03:06:04;15.70;99.90
58517;DHT22;44308;50.810;0.284;2023-07-13T03:08:31;15.80;99.90
58517;DHT22;44308;50.810;0.284;2023-07-13T03:11:02;15.70;99.90
58517;DHT22;44308;50.810;0.284;2023-07-13T03:13:28;15.70;99.90
58517;DHT22;44308;50.810;0.284;2023-07-13T03:15:55;15.70;99.90
58517;DHT22;44308;50.810;0.284;2023-07-13T03:18:29;15.60;99.90
58517;DHT22;44308;50.810;0.284;2023-07-13T03:20:55;15.60;99.90
58517;DHT22;44308;50.810;0.284;2023-07-13T03:23:23;15.50;99.90
58517;DHT22;44308;50.810;0.284;2023-07-13T03:28:32;15.40;99.90
58517;DHT22;44308;50.810;0.284;2023-07-13T03:31:09;15.30;99.90
58517;DHT22;44308;50.810;0.284;2023-07-13T03:33:37;15.30;99.90
58517;DHT22;44308;50.810;0.284;2023-07-13T03:36:05;15.30;99.90
58517;DHT22;44308;50.810;0.284;2023-07-13T03:38:31;15.30;99.90
58517;DHT22;44308;50.810;0.284;2023-07-13T03:40:57;15.20;99.90
58517;DHT22;44308;50.810;0.284;2023-07-13T03:43:27;15.20;99.90
58517;DHT22;44308;50.810;0.284;2023-07-13T03:45:53;15.20;99.90
58517;DHT22;44308;50.810;0.284;2023-07-13T03:48:22;15.20;99.90
58517;DHT22;44308;50.810;0.284;2023-07-13T03:50:48;15.20;99.90
58517;DHT22;44308;50.810;0.284;2023-07-13T03:53:17;15.20;99.90
58517;DHT22;44308;50.810;0.284;2023-07-13T03:55:46;15.30;99.90
58517;DHT22;44308;50.810;0.284;2023-07-13T03:58:27;15.30;99.90
58517;DHT22;44308;50.810;0.284;2023-07-13T04:00:54;15.30;99.90
58517;DHT22;44308;50.810;0.284;2023-07-13T04:03:20;15.40;99.90
58517;DHT22;44308;50.810;0.284;2023-07-13T04:05:46;15.40;99.90
58517;DHT22;44308;50.810;0.284;2023-07-13T04:08:12;15.40;99.90
58517;DHT22;44308;50.810;0.284;2023-07-13T04:10:41;15.50;99.90
58517;DHT22;44308;50.810;0.284;2023-07-13T04:13:12;15.50;99.90
58517;DHT22;44308;50.810;0.284;2023-07-13T04:15:39;15.50;99.90
58517;DHT22;44308;50.810;0.284;2023-07-13T04:18:05;15.70;99.90
58517;DHT22;44308;50.810;0.284;2023-07-13T04:20:30;15.70;99.90
58517;DHT22;44308;50.810;0.284;2023-07-13T04:22:56;15.80;99.90
58517;DHT22;44308;50.810;0.284;2023-07-13T04:25:23;15.80;99.90
58517;DHT22;44308;50.810;0.284;2023-07-13T04:27:49;15.90;99.90
58517;DHT22;44308;50.810;0.284;2023-07-13T04:30:15;16.00;99.90
58517;DHT22;44308;50.810;0.284;2023-07-13T04:32:42;16.00;99.90
58517;DHT22;44308;50.810;0.284;2023-07-13T04:35:08;16.10;99.90
58517;DHT22;44308;50.810;0.284;2023-07-13T04:37:34;16.20;99.90
58517;DHT22;44308;50.810;0.284;2023-07-13T04:40:01;16.30;99.90
58517;DHT22;44308;50.810;0.284;2023-07-13T04:42:27;16.20;99.90
58517;DHT22;44308;50.810;0.284;2023-07-13T04:44:52;16.30;99.90
58517;DHT22;44308;50.810;0.284;2023-07-13T04:47:18;16.30;99.90
58517;DHT22;44308;50.810;0.284;2023-07-13T04:49:45;16.40;99.90
58517;DHT22;44308;50.810;0.284;2023-07-13T04:52:11;16.40;99.90
58517;DHT22;44308;50.810;0.284;2023-07-13T04:54:38;16.40;99.90
58517;DHT22;44308;50.810;0.284;2023-07-13T04:57:05;16.50;99.90
58517;DHT22;44308;50.810;0.284;2023-07-13T04:59:34;16.50;99.90
58517;DHT22;44308;50.810;0.284;2023-07-13T05:02:00;16.50;99.90
58517;DHT22;44308;50.810;0.284;2023-07-13T05:04:29;16.60;99.90
58517;DHT22;44308;50.810;0.284;2023-07-13T05:06:55;16.60;99.90
58517;DHT22;44308;50.810;0.284;2023-07-13T05:09:20;16.70;99.90
58517;DHT22;44308;50.810;0.284;2023-07-13T05:11:46;16.70;99.90
58517;DHT22;44308;50.810;0.284;2023-07-13T05:14:12;16.80;99.90
58517;DHT22;44308;50.810;0.284;2023-07-13T05:16:38;16.90;99.90
58517;DHT22;44308;50.810;0.284;2023-07-13T05:19:03;17.00;99.90
58517;DHT22;44308;50.810;0.284;2023-07-13T05:21:31;17.00;99.90
58517;DHT22;44308;50.810;0.284;2023-07-13T05:23:59;17.00;99.90
58517;DHT22;44308;50.810;0.284;2023-07-13T05:26:25;17.10;99.90
58517;DHT22;44308;50.810;0.284;2023-07-13T05:28:51;17.10;99.90
58517;DHT22;44308;50.810;0.284;2023-07-13T05:34:12;17.20;99.90
58517;DHT22;44308;50.810;0.284;2023-07-13T05:36:50;17.30;99.90
58517;DHT22;44308;50.810;0.284;2023-07-13T05:39:21;17.30;99.90
58517;DHT22;44308;50.810;0.284;2023-07-13T05:41:53;17.30;99.90
58517;DHT22;44308;50.810;0.284;2023-07-13T05:44:24;17.30;99.90
58517;DHT22;44308;50.810;0.284;2023-07-13T05:46:59;17.40;99.90
58517;DHT22;44308;50.810;0.284;2023-07-13T05:49:37;17.40;99.90
58517;DHT22;44308;50.810;0.284;2023-07-13T05:52:07;17.40;99.90
58517;DHT22;44308;50.810;0.284;2023-07-13T05:54:33;17.50;99.90
58517;DHT22;44308;50.810;0.284;2023-07-13T05:57:00;17.60;99.90
58517;DHT22;44308;50.810;0.284;2023-07-13T05:59:26;17.70;99.90
58517;DHT22;44308;50.810;0.284;2023-07-13T06:01:52;17.90;99.90
58517;DHT22;44308;50.810;0.284;2023-07-13T06:04:28;17.90;99.90
58517;DHT22;44308;50.810;0.284;2023-07-13T06:07:16;18.00;99.90
58517;DHT22;44308;50.810;0.284;2023-07-13T06:09:48;18.00;99.90
58517;DHT22;44308;50.810;0.284;2023-07-13T06:12:14;18.10;99.90
58517;DHT22;44308;50.810;0.284;2023-07-13T06:14:39;18.20;99.90
58517;DHT22;44308;50.810;0.284;2023-07-13T06:17:08;18.30;99.90
58517;DHT22;44308;50.810;0.284;2023-07-13T06:19:34;18.30;99.90
58517;DHT22;44308;50.810;0.284;2023-07-13T06:22:10;18.30;99.90
58517;DHT22;44308;50.810;0.284;2023-07-13T06:24:40;18.30;99.90
58517;DHT22;44308;50.810;0.284;2023-07-13T06:27:06;18.40;99.90
58517;DHT22;44308;50.810;0.284;2023-07-13T06:29:33;18.60;99.90
58517;DHT22;44308;50.810;0.284;2023-07-13T06:31:59;19.10;99.90
58517;DHT22;44308;50.810;0.284;2023-07-13T06:34:25;19.70;99.90
58517;DHT22;44308;50.810;0.284;2023-07-13T06:36:51;20.30;99.90
58517;DHT22;44308;50.810;0.284;2023-07-13T06:39:20;20.70;99.90
58517;DHT22;44308;50.810;0.284;2023-07-13T06:41:48;21.30;99.90
58517;DHT22;44308;50.810;0.284;2023-07-13T06:44:14;21.40;99.90
58517;DHT22;44308;50.810;0.284;2023-07-13T06:46:40;21.10;99.90
58517;DHT22;44308;50.810;0.284;2023-07-13T06:49:13;21.00;99.90
58517;DHT22;44308;50.810;0.284;2023-07-13T06:51:39;21.10;99.90
58517;DHT22;44308;50.810;0.284;2023-07-13T06:54:05;21.30;99.90
58517;DHT22;44308;50.810;0.284;2023-07-13T06:56:30;21.80;99.90
58517;DHT22;44308;50.810;0.284;2023-07-13T06:58:56;22.10;99.90
58517;DHT22;44308;50.810;0.284;2023-07-13T07:01:22;22.10;99.90
58517;DHT22;44308;50.810;0.284;2023-07-13T07:03:48;22.10;99.90
58517;DHT22;44308;50.810;0.284;2023-07-13T07:06:17;22.30;99.90
58517;DHT22;44308;50.810;0.284;2023-07-13T07:08:43;22.00;99.90
58517;DHT22;44308;50.810;0.284;2023-07-13T07:11:16;21.60;99.90
58517;DHT22;44308;50.810;0.284;2023-07-13T07:13:41;21.80;99.90
58517;DHT22;44308;50.810;0.284;2023-07-13T07:16:07;22.10;99.90
58517;DHT22;44308;50.810;0.284;2023-07-13T07:18:34;22.30;99.90
58517;DHT22;44308;50.810;0.284;2023-07-13T07:21:00;22.60;99.90
58517;DHT22;44308;50.810;0.284;2023-07-13T07:23:26;22.80;99.90
58517;DHT22;44308;50.810;0.284;2023-07-13T07:25:52;23.30;99.90
58517;DHT22;44308;50.810;0.284;2023-07-13T07:28:20;23.70;99.90
58517;DHT22;44308;50.810;0.284;2023-07-13T07:30:46;23.80;99.90
58517;DHT22;44308;50.810;0.284;2023-07-13T07:33:15;23.00;99.90
58517;DHT22;44308;50.810;0.284;2023-07-13T07:35:42;22.40;99.90
58517;DHT22;44308;50.810;0.284;2023-07-13T07:38:08;21.80;99.90
58517;DHT22;44308;50.810;0.284;2023-07-13T07:40:39;21.30;99.90
58517;DHT22;44308;50.810;0.284;2023-07-13T07:43:08;20.90;99.90
58517;DHT22;44308;50.810;0.284;2023-07-13T07:45:43;20.70;99.90
58517;DHT22;44308;50.810;0.284;2023-07-13T07:48:09;20.40;99.90
58517;DHT22;44308;50.810;0.284;2023-07-13T07:50:35;20.20;99.90
58517;DHT22;44308;50.810;0.284;2023-07-13T07:53:03;20.10;99.90
58517;DHT22;44308;50.810;0.284;2023-07-13T07:55:33;20.20;99.90
58517;DHT22;44308;50.810;0.284;2023-07-13T07:58:02;20.10;99.90
58517;DHT22;44308;50.810;0.284;2023-07-13T08:00:31;20.20;99.90
58517;DHT22;44308;50.810;0.284;2023-07-13T08:03:00;20.10;99.90
58517;DHT22;44308;50.810;0.284;2023-07-13T08:05:26;20.00;99.90
58517;DHT22;44308;50.810;0.284;2023-07-13T08:07:52;19.90;99.90
58517;DHT22;44308;50.810;0.284;2023-07-13T08:10:21;19.90;99.90
58517;DHT22;44308;50.810;0.284;2023-07-13T08:13:02;20.00;99.90
58517;DHT22;44308;50.810;0.284;2023-07-13T08:15:31;20.00;99.90
58517;DHT22;44308;50.810;0.284;2023-07-13T08:18:00;20.30;99.90
58517;DHT22;44308;50.810;0.284;2023-07-13T08:20:26;20.50;99.90
58517;DHT22;44308;50.810;0.284;2023-07-13T08:22:52;20.90;99.90
58517;DHT22;44308;50.810;0.284;2023-07-13T08:25:18;21.60;99.90
58517;DHT22;44308;50.810;0.284;2023-07-13T08:27:43;21.80;99.90
58517;DHT22;44308;50.810;0.284;2023-07-13T08:30:09;21.70;99.90
58517;DHT22;44308;50.810;0.284;2023-07-13T08:32:36;21.10;99.90
58517;DHT22;44308;50.810;0.284;2023-07-13T08:35:02;20.60;99.90
58517;DHT22;44308;50.810;0.284;2023-07-13T08:37:27;20.10;99.90
58517;DHT22;44308;50.810;0.284;2023-07-13T08:39:53;19.90;99.90
58517;DHT22;44308;50.810;0.284;2023-07-13T08:42:39;19.70;99.90
58517;DHT22;44308;50.810;0.284;2023-07-13T08:45:39;19.60;99.90
58517;DHT22;44308;50.810;0.284;2023-07-13T08:48:13;19.50;99.90
58517;DHT22;44308;50.810;0.284;2023-07-13T08:50:49;19.60;99.90
58517;DHT22;44308;50.810;0.284;2023-07-13T08:53:17;19.60;99.90
58517;DHT22;44308;50.810;0.284;2023-07-13T08:55:44;19.50;99.90
58517;DHT22;44308;50.810;0.284;2023-07-13T08:58:13;19.50;99.90
58517;DHT22;44308;50.810;0.284;2023-07-13T09:01:06;19.50;99.90
58517;DHT22;44308;50.810;0.284;2023-07-13T09:03:41;19.40;99.90
58517;DHT22;44308;50.810;0.284;2023-07-13T09:06:12;19.80;99.90
58517;DHT22;44308;50.810;0.284;2023-07-13T09:09:01;20.10;99.90
58517;DHT22;44308;50.810;0.284;2023-07-13T09:11:50;20.30;99.90
58517;DHT22;44308;50.810;0.284;2023-07-13T09:14:35;20.70;99.90
58517;DHT22;44308;50.810;0.284;2023-07-13T09:17:10;21.00;99.90
58517;DHT22;44308;50.810;0.284;2023-07-13T09:19:37;21.10;99.90
58517;DHT22;44308;50.810;0.284;2023-07-13T09:22:05;21.10;99.90
58517;DHT22;44308;50.810;0.284;2023-07-13T09:24:49;21.30;99.90
58517;DHT22;44308;50.810;0.284;2023-07-13T09:27:21;21.70;99.90
58517;DHT22;44308;50.810;0.284;2023-07-13T09:30:17;21.80;99.90
58517;DHT22;44308;50.810;0.284;2023-07-13T09:32:52;21.70;99.90
58517;DHT22;44308;50.810;0.284;2023-07-13T09:35:29;21.40;99.90
58517;DHT22;44308;50.810;0.284;2023-07-13T09:38:24;21.20;99.90
58517;DHT22;44308;50.810;0.284;2023-07-13T09:41:15;21.30;99.90
58517;DHT22;44308;50.810;0.284;2023-07-13T09:44:14;21.20;99.90
58517;DHT22;44308;50.810;0.284;2023-07-13T09:46:51;21.20;99.90
58517;DHT22;44308;50.810;0.284;2023-07-13T09:49:18;21.40;99.90
58517;DHT22;44308;50.810;0.284;2023-07-13T09:51:44;21.80;99.90
58517;DHT22;44308;50.810;0.284;2023-07-13T09:54:19;22.10;99.90
58517;DHT22;44308;50.810;0.284;2023-07-13T09:56:45;22.40;99.90
58517;DHT22;44308;50.810;0.284;2023-07-13T09:59:20;22.30;99.90
58517;DHT22;44308;50.810;0.284;2023-07-13T10:01:46;22.30;99.90
58517;DHT22;44308;50.810;0.284;2023-07-13T10:04:14;22.10;99.90
58517;DHT22;44308;50.810;0.284;2023-07-13T10:06:44;22.10;99.90
58517;DHT22;44308;50.810;0.284;2023-07-13T10:09:15;22.60;99.90
58517;DHT22;44308;50.810;0.284;2023-07-13T10:11:41;22.70;99.90
58517;DHT22;44308;50.810;0.284;2023-07-13T10:14:17;23.10;99.90
58517;DHT22;44308;50.810;0.284;2023-07-13T10:16:45;22.90;99.90
58517;DHT22;44308;50.810;0.284;2023-07-13T10:22:14;24.00;99.90
58517;DHT22;44308;50.810;0.284;2023-07-13T10:24:44;24.00;99.90
58517;DHT22;44308;50.810;0.284;2023-07-13T10:29:50;24.30;99.90
58517;DHT22;44308;50.810;0.284;2023-07-13T10:32:19;23.80;99.90
58517;DHT22;44308;50.810;0.284;2023-07-13T10:34:47;23.70;99.90
58517;DHT22;44308;50.810;0.284;2023-07-13T10:37:24;23.30;99.90
58517;DHT22;44308;50.810;0.284;2023-07-13T10:39:55;23.10;99.90
58517;DHT22;44308;50.810;0.284;2023-07-13T10:42:33;23.40;99.90
58517;DHT22;44308;50.810;0.284;2023-07-13T10:45:00;23.40;99.90
58517;DHT22;44308;50.810;0.284;2023-07-13T10:47:27;23.00;99.90
58517;DHT22;44308;50.810;0.284;2023-07-13T10:49:56;22.80;99.90
58517;DHT22;44308;50.810;0.284;2023-07-13T10:52:45;22.40;99.90
58517;DHT22;44308;50.810;0.284;2023-07-13T10:58:10;22.30;99.90
58517;DHT22;44308;50.810;0.284;2023-07-13T11:00:46;22.30;99.90
58517;DHT22;44308;50.810;0.284;2023-07-13T11:03:17;22.60;99.90
58517;DHT22;44308;50.810;0.284;2023-07-13T11:05:44;22.60;99.90
58517;DHT22;44308;50.810;0.284;2023-07-13T11:08:32;21.90;99.90
58517;DHT22;44308;50.810;0.284;2023-07-13T11:10:58;22.20;99.90
58517;DHT22;44308;50.810;0.284;2023-07-13T11:21:27;23.10;99.90
58517;DHT22;44308;50.810;0.284;2023-07-13T11:27:38;23.40;99.90
58517;DHT22;44308;50.810;0.284;2023-07-13T11:35:33;23.50;99.90
58517;DHT22;44308;50.810;0.284;2023-07-13T11:38:01;23.70;99.90
58517;DHT22;44308;50.810;0.284;2023-07-13T11:40:28;23.70;99.90
58517;DHT22;44308;50.810;0.284;2023-07-13T11:43:14;23.60;99.90
58517;DHT22;44308;50.810;0.284;2023-07-13T11:45:42;23.30;99.90
58517;DHT22;44308;50.810;0.284;2023-07-13T11:48:26;23.60;99.90
58517;DHT22;44308;50.810;0.284;2023-07-13T11:51:16;23.70;99.90
58517;DHT22;44308;50.810;0.284;2023-07-13T11:53:47;23.40;99.90
58517;DHT22;44308;50.810;0.284;2023-07-13T11:56:14;23.40;99.90
58517;DHT22;44308;50.810;0.284;2023-07-13T11:58:47;23.40;99.90
58517;DHT22;44308;50.810;0.284;2023-07-13T12:01:35;23.40;99.90
58517;DHT22;44308;50.810;0.284;2023-07-13T12:04:30;23.60;99.90
58517;DHT22;44308;50.810;0.284;2023-07-13T12:07:11;23.20;99.90
58517;DHT22;44308;50.810;0.284;2023-07-13T12:09:50;23.10;99.90
58517;DHT22;44308;50.810;0.284;2023-07-13T12:12:22;22.80;99.90
58517;DHT22;44308;50.810;0.284;2023-07-13T12:14:52;22.80;99.90
58517;DHT22;44308;50.810;0.284;2023-07-13T12:17:24;22.90;99.90
58517;DHT22;44308;50.810;0.284;2023-07-13T12:19:58;23.10;99.90
58517;DHT22;44308;50.810;0.284;2023-07-13T12:22:25;23.10;99.90
58517;DHT22;44308;50.810;0.284;2023-07-13T12:24:56;23.10;99.90
58517;DHT22;44308;50.810;0.284;2023-07-13T12:27:37;22.90;99.90
58517;DHT22;44308;50.810;0.284;2023-07-13T12:30:32;22.90;99.90
58517;DHT22;44308;50.810;0.284;2023-07-13T12:33:12;23.50;99.90
58517;DHT22;44308;50.810;0.284;2023-07-13T12:35:51;24.20;99.90
58517;DHT22;44308;50.810;0.284;2023-07-13T12:38:32;23.40;99.90
58517;DHT22;44308;50.810;0.284;2023-07-13T12:41:01;23.20;99.90
58517;DHT22;44308;50.810;0.284;2023-07-13T12:43:35;22.90;99.90
58517;DHT22;44308;50.810;0.284;2023-07-13T12:46:23;22.70;99.90
58517;DHT22;44308;50.810;0.284;2023-07-13T12:48:57;23.20;99.90
58517;DHT22;44308;50.810;0.284;2023-07-13T12:51:27;23.10;99.90
58517;DHT22;44308;50.810;0.284;2023-07-13T12:54:19;23.30;99.90
58517;DHT22;44308;50.810;0.284;2023-07-13T12:56:55;23.30;99.90
58517;DHT22;44308;50.810;0.284;2023-07-13T12:59:31;23.30;99.90
58517;DHT22;44308;50.810;0.284;2023-07-13T13:02:16;23.50;99.90
58517;DHT22;44308;50.810;0.284;2023-07-13T13:04:58;23.10;99.90
58517;DHT22;44308;50.810;0.284;2023-07-13T13:07:30;23.30;99.90
58517;DHT22;44308;50.810;0.284;2023-07-13T13:10:22;23.40;99.90
58517;DHT22;44308;50.810;0.284;2023-07-13T13:13:01;23.30;99.90
58517;DHT22;44308;50.810;0.284;2023-07-13T13:15:31;23.30;99.90
58517;DHT22;44308;50.810;0.284;2023-07-13T13:18:21;22.90;99.90
58517;DHT22;44308;50.810;0.284;2023-07-13T13:20:55;23.10;99.90
58517;DHT22;44308;50.810;0.284;2023-07-13T13:23:51;23.10;99.90
58517;DHT22;44308;50.810;0.284;2023-07-13T13:26:23;23.10;99.90
58517;DHT22;44308;50.810;0.284;2023-07-13T13:28:52;23.30;99.90
58517;DHT22;44308;50.810;0.284;2023-07-13T13:31:33;23.20;99.90
58517;DHT22;44308;50.810;0.284;2023-07-13T13:34:04;23.30;99.90
58517;DHT22;44308;50.810;0.284;2023-07-13T13:36:54;23.40;99.90
58517;DHT22;44308;50.810;0.284;2023-07-13T13:39:33;23.40;99.90
58517;DHT22;44308;50.810;0.284;2023-07-13T13:42:09;23.40;99.90
58517;DHT22;44308;50.810;0.284;2023-07-13T13:44:50;23.70;99.90
58517;DHT22;44308;50.810;0.284;2023-07-13T13:47:31;23.60;99.90
58517;DHT22;44308;50.810;0.284;2023-07-13T13:50:00;23.20;99.90
58517;DHT22;44308;50.810;0.284;2023-07-13T13:52:26;23.20;99.90
58517;DHT22;44308;50.810;0.284;2023-07-13T13:54:59;23.10;99.90
58517;DHT22;44308;50.810;0.284;2023-07-13T13:57:30;22.80;99.90
58517;DHT22;44308;50.810;0.284;2023-07-13T13:59:56;22.60;99.90
58517;DHT22;44308;50.810;0.284;2023-07-13T14:02:29;22.30;99.90
58517;DHT22;44308;50.810;0.284;2023-07-13T14:04:59;22.20;99.90
58517;DHT22;44308;50.810;0.284;2023-07-13T14:07:26;22.40;99.90
58517;DHT22;44308;50.810;0.284;2023-07-13T14:09:57;22.60;99.90
58517;DHT22;44308;50.810;0.284;2023-07-13T14:12:27;22.50;99.90
58517;DHT22;44308;50.810;0.284;2023-07-13T14:15:03;22.40;99.90
58517;DHT22;44308;50.810;0.284;2023-07-13T14:17:29;22.50;99.90
58517;DHT22;44308;50.810;0.284;2023-07-13T14:19:57;22.40;99.90
58517;DHT22;44308;50.810;0.284;2023-07-13T14:22:26;22.60;99.90
58517;DHT22;44308;50.810;0.284;2023-07-13T14:24:55;22.60;99.90
58517;DHT22;44308;50.810;0.284;2023-07-13T14:27:25;22.40;99.90
58517;DHT22;44308;50.810;0.284;2023-07-13T14:29:54;22.30;99.90
58517;DHT22;44308;50.810;0.284;2023-07-13T14:32:20;22.50;99.90
58517;DHT22;44308;50.810;0.284;2023-07-13T14:34:56;22.80;99.90
58517;DHT22;44308;50.810;0.284;2023-07-13T14:37:30;22.90;99.90
58517;DHT22;44308;50.810;0.284;2023-07-13T14:40:11;22.90;99.90
58517;DHT22;44308;50.810;0.284;2023-07-13T14:42:38;22.20;99.90
58517;DHT22;44308;50.810;0.284;2023-07-13T14:45:04;21.80;99.90
58517;DHT22;44308;50.810;0.284;2023-07-13T14:47:34;21.80;99.90
58517;DHT22;44308;50.810;0.284;2023-07-13T14:50:24;21.60;99.90
58517;DHT22;44308;50.810;0.284;2023-07-13T14:53:07;21.50;99.90
58517;DHT22;44308;50.810;0.284;2023-07-13T14:55:34;21.60;99.90
58517;DHT22;44308;50.810;0.284;2023-07-13T14:58:00;21.40;99.90
58517;DHT22;44308;50.810;0.284;2023-07-13T15:00:29;21.30;99.90
58517;DHT22;44308;50.810;0.284;2023-07-13T15:03:00;20.80;99.90
58517;DHT22;44308;50.810;0.284;2023-07-13T15:05:29;20.70;99.90
58517;DHT22;44308;50.810;0.284;2023-07-13T15:07:58;20.60;99.90
58517;DHT22;44308;50.810;0.284;2023-07-13T15:10:27;20.50;99.90
58517;DHT22;44308;50.810;0.284;2023-07-13T15:15:55;20.50;99.90
58517;DHT22;44308;50.810;0.284;2023-07-13T15:18:33;20.50;99.90
58517;DHT22;44308;50.810;0.284;2023-07-13T15:21:03;20.50;99.90
58517;DHT22;44308;50.810;0.284;2023-07-13T15:23:37;20.50;99.90
58517;DHT22;44308;50.810;0.284;2023-07-13T15:26:04;20.60;99.90
58517;DHT22;44308;50.810;0.284;2023-07-13T15:28:35;20.70;99.90
58517;DHT22;44308;50.810;0.284;2023-07-13T15:31:01;20.80;99.90
58517;DHT22;44308;50.810;0.284;2023-07-13T15:33:31;20.90;99.90
58517;DHT22;44308;50.810;0.284;2023-07-13T15:35:57;20.90;99.90
58517;DHT22;44308;50.810;0.284;2023-07-13T15:38:27;21.00;99.90
58517;DHT22;44308;50.810;0.284;2023-07-13T15:40:54;21.00;99.90
58517;DHT22;44308;50.810;0.284;2023-07-13T15:43:21;21.30;99.90
58517;DHT22;44308;50.810;0.284;2023-07-13T15:45:47;21.30;99.90
58517;DHT22;44308;50.810;0.284;2023-07-13T15:48:21;21.40;99.90
58517;DHT22;44308;50.810;0.284;2023-07-13T15:50:52;21.50;99.90
58517;DHT22;44308;50.810;0.284;2023-07-13T15:53:24;21.70;99.90
58517;DHT22;44308;50.810;0.284;2023-07-13T15:55:50;21.90;99.90
58517;DHT22;44308;50.810;0.284;2023-07-13T15:58:17;21.90;99.90
58517;DHT22;44308;50.810;0.284;2023-07-13T16:00:50;21.90;99.90
58517;DHT22;44308;50.810;0.284;2023-07-13T16:03:17;21.70;99.90
58517;DHT22;44308;50.810;0.284;2023-07-13T16:05:47;21.70;99.90
58517;DHT22;44308;50.810;0.284;2023-07-13T16:08:48;21.60;99.90
58517;DHT22;44308;50.810;0.284;2023-07-13T16:16:12;21.70;99.90
58517;DHT22;44308;50.810;0.284;2023-07-13T16:23:29;22.10;99.90
58517;DHT22;44308;50.810;0.284;2023-07-13T16:30:20;21.90;99.90
58517;DHT22;44308;50.810;0.284;2023-07-13T16:33:11;21.80;99.90
58517;DHT22;44308;50.810;0.284;2023-07-13T16:35:40;21.40;99.90
58517;DHT22;44308;50.810;0.284;2023-07-13T16:40:58;21.10;99.90
58517;DHT22;44308;50.810;0.284;2023-07-13T16:43:24;21.20;99.90
58517;DHT22;44308;50.810;0.284;2023-07-13T16:45:53;21.00;99.90